Time;durP1;ratioP1;P1;durP2;ratioP2;P2;SDS_P1;SDS_P2;PMS_P1;PMS_P2;Temp;Humidity;BMP_temperature;BMP_pressure;BME280_temperature;BME280_humidity;BME280_pressure;Samples;Min_cycle;Max_cycle;Signal;HPM_P1;HPM_P2
2022/10/05 00:01:30;;;;;;;22.50;20.30;;;18.70;99.90;;;;;;5077897;28;20275;-91
2022/10/05 00:04:14;;;;;;;23.63;20.37;;;18.80;99.90;;;;;;5095451;28;20201;-92
2022/10/05 00:06:47;;;;;;;23.90;21.27;;;18.80;99.90;;;;;;5097167;28;20206;-91
2022/10/05 00:09:19;;;;;;;23.97;21.47;;;18.90;99.90;;;;;;5097955;28;20291;-92
2022/10/05 00:11:52;;;;;;;21.70;19.50;;;18.70;99.90;;;;;;5094614;28;20300;-92
2022/10/05 00:14:28;;;;;;;21.60;19.23;;;18.80;99.90;;;;;;5110856;28;20229;-92
2022/10/05 00:17:00;;;;;;;23.27;20.77;;;18.80;99.90;;;;;;5098107;28;20203;-92
2022/10/05 00:19:36;;;;;;;28.87;19.90;;;18.80;99.90;;;;;;5096321;28;20296;-91
2022/10/05 00:22:14;;;;;;;22.97;20.53;;;18.60;99.90;;;;;;5096381;28;20217;-92
2022/10/05 00:24:45;;;;;;;28.30;20.50;;;18.60;99.90;;;;;;5079221;28;20202;-92
2022/10/05 00:27:19;;;;;;;25.17;21.13;;;18.40;99.90;;;;;;5119054;28;20233;-92
2022/10/05 00:29:52;;;;;;;22.13;19.70;;;18.30;99.90;;;;;;5131642;28;20207;-91
2022/10/05 00:32:23;;;;;;;20.93;18.73;;;18.30;99.90;;;;;;5107949;28;20703;-91
2022/10/05 00:34:59;;;;;;;22.50;19.23;;;18.20;99.90;;;;;;5116020;28;20210;-92
2022/10/05 00:37:30;;;;;;;21.70;18.90;;;18.20;99.90;;;;;;5099656;28;20203;-92
2022/10/05 00:40:02;;;;;;;22.83;18.23;;;18.10;99.90;;;;;;5091231;28;20210;-92
2022/10/05 00:42:42;;;;;;;21.83;18.93;;;18.00;99.90;;;;;;5110408;28;20297;-91
2022/10/05 00:45:17;;;;;;;21.10;18.80;;;17.80;99.90;;;;;;5111355;28;20781;-92
2022/10/05 00:48:02;;;;;;;21.37;19.00;;;17.80;99.90;;;;;;5117271;28;20201;-92
2022/10/05 00:51:00;;;;;;;20.63;18.03;;;17.60;99.90;;;;;;5117965;28;20203;-92
2022/10/05 00:53:44;;;;;;;21.83;19.40;;;17.50;99.90;;;;;;5098788;28;20241;-92
2022/10/05 00:56:25;;;;;;;24.90;20.43;;;17.50;99.90;;;;;;5096421;28;20234;-92
2022/10/05 00:59:09;;;;;;;26.10;21.90;;;17.40;99.90;;;;;;5107707;28;20214;-93
2022/10/05 01:01:45;;;;;;;22.90;20.30;;;17.40;99.90;;;;;;5102313;28;20280;-92
2022/10/05 01:04:22;;;;;;;27.23;22.47;;;17.30;99.90;;;;;;5101063;28;20237;-91
2022/10/05 01:07:07;;;;;;;27.13;22.67;;;17.30;99.90;;;;;;5096017;28;20653;-92
2022/10/05 01:09:46;;;;;;;24.83;20.73;;;17.20;99.90;;;;;;5105017;28;20214;-91
2022/10/05 01:12:28;;;;;;;22.87;20.53;;;17.10;99.90;;;;;;5095451;28;20233;-91
2022/10/05 01:15:06;;;;;;;26.80;22.20;;;17.10;99.90;;;;;;5095412;28;20207;-92
2022/10/05 01:17:45;;;;;;;24.13;21.63;;;17.10;99.90;;;;;;5098472;28;20206;-91
2022/10/05 01:20:50;;;;;;;25.77;21.90;;;17.00;99.90;;;;;;5115356;28;20220;-92
2022/10/05 01:23:50;;;;;;;26.33;22.37;;;16.90;99.90;;;;;;5099742;28;20203;-88
2022/10/05 01:26:39;;;;;;;23.33;20.90;;;16.70;99.90;;;;;;5112281;28;20221;-86
2022/10/05 01:29:17;;;;;;;23.17;20.67;;;16.60;99.90;;;;;;5120965;28;20186;-96
2022/10/05 01:31:56;;;;;;;22.27;19.77;;;16.60;99.90;;;;;;5130822;28;20278;-96
2022/10/05 01:34:37;;;;;;;24.53;21.23;;;16.50;99.90;;;;;;5119117;28;20201;-96
2022/10/05 01:37:17;;;;;;;25.10;21.87;;;16.40;99.90;;;;;;5130666;28;20186;-95
2022/10/05 01:39:57;;;;;;;24.27;20.90;;;16.30;99.90;;;;;;5136876;28;20194;-88
2022/10/05 01:42:38;;;;;;;23.77;21.07;;;16.20;99.90;;;;;;5112338;28;20221;-89
2022/10/05 01:45:19;;;;;;;22.83;20.43;;;16.20;99.90;;;;;;5114996;28;20216;-89
2022/10/05 01:47:52;;;;;;;24.37;20.80;;;16.10;99.90;;;;;;5094742;28;20675;-89
2022/10/05 01:50:34;;;;;;;27.87;22.20;;;16.00;99.90;;;;;;5108598;28;20211;-89
2022/10/05 01:53:20;;;;;;;23.93;20.40;;;15.90;99.90;;;;;;5096581;28;20229;-90
2022/10/05 01:55:57;;;;;;;24.73;21.90;;;15.90;99.90;;;;;;5101740;28;20225;-90
2022/10/05 01:58:38;;;;;;;30.23;23.00;;;15.80;99.90;;;;;;5109606;28;20230;-90
2022/10/05 02:01:17;;;;;;;27.27;23.43;;;15.80;99.90;;;;;;5102423;28;20210;-90
2022/10/05 02:03:53;;;;;;;27.50;23.03;;;15.70;99.90;;;;;;5118036;28;20205;-90
2022/10/05 02:06:27;;;;;;;27.63;22.83;;;15.70;99.90;;;;;;5115548;28;20210;-89
2022/10/05 02:11:54;;;;;;;27.33;23.37;;;15.60;99.90;;;;;;5096644;28;20222;-90
2022/10/05 02:14:30;;;;;;;25.47;22.37;;;15.50;99.90;;;;;;5102554;28;20671;-91
2022/10/05 02:17:14;;;;;;;26.57;22.10;;;15.40;99.90;;;;;;5106491;28;20206;-92
2022/10/05 02:19:50;;;;;;;26.67;22.23;;;15.30;99.90;;;;;;5114471;28;20657;-92
2022/10/05 02:22:25;;;;;;;24.20;21.30;;;15.30;99.90;;;;;;5112490;28;20258;-96
2022/10/05 02:25:04;;;;;;;24.30;21.73;;;15.20;99.90;;;;;;6114300;22;20207;-97
2022/10/05 02:30:47;;;;;;;26.67;21.30;;;15.10;99.90;;;;;;5251405;22;20219;-96
2022/10/05 02:33:42;;;;;;;27.23;21.27;;;15.10;99.90;;;;;;5101957;28;20243;-96
2022/10/05 02:36:21;;;;;;;24.87;21.47;;;15.00;99.90;;;;;;5074645;28;20291;-96
2022/10/05 02:39:06;;;;;;;26.00;20.57;;;15.00;99.90;;;;;;5070934;28;20212;-96
2022/10/05 02:41:52;;;;;;;25.33;21.07;;;14.90;99.90;;;;;;5046513;28;20258;-96
2022/10/05 02:44:35;;;;;;;23.50;20.97;;;14.90;99.90;;;;;;5072062;28;20204;-97
2022/10/05 02:47:21;;;;;;;26.37;21.43;;;14.90;99.90;;;;;;5053646;28;20256;-96
2022/10/05 02:50:01;;;;;;;25.57;20.43;;;15.00;99.90;;;;;;5080173;28;20211;-96
2022/10/05 02:52:42;;;;;;;23.27;19.40;;;15.00;99.90;;;;;;5085527;28;20272;-96
2022/10/05 02:55:22;;;;;;;24.47;20.43;;;14.90;99.90;;;;;;5087406;28;20219;-96
2022/10/05 02:58:03;;;;;;;23.63;19.30;;;14.80;99.90;;;;;;5083173;28;20211;-96
2022/10/05 03:00:42;;;;;;;23.93;19.50;;;14.80;99.90;;;;;;5090295;28;20214;-96
2022/10/05 03:03:22;;;;;;;22.20;19.73;;;14.70;99.90;;;;;;5083974;28;20255;-95
2022/10/05 03:06:02;;;;;;;23.23;19.43;;;14.60;99.90;;;;;;5095185;28;20196;-95
2022/10/05 03:08:45;;;;;;;21.50;19.20;;;14.50;99.90;;;;;;5096262;28;20227;-96
2022/10/05 03:11:26;;;;;;;21.97;18.63;;;14.50;99.90;;;;;;5090110;28;20238;-96
2022/10/05 03:21:27;;;;;;;21.77;19.23;;;14.30;99.90;;;;;;5034035;28;20264;-96
2022/10/05 03:26:58;;;;;;;22.70;20.17;;;14.20;99.90;;;;;;5047941;28;20217;-96
2022/10/05 03:29:55;;;;;;;21.80;19.30;;;14.20;99.90;;;;;;5059380;28;20232;-96
2022/10/05 03:32:43;;;;;;;24.53;20.00;;;14.10;99.90;;;;;;5064377;28;20216;-96
2022/10/05 03:35:31;;;;;;;20.93;18.57;;;14.10;99.90;;;;;;5039374;28;20193;-96
2022/10/05 03:38:41;;;;;;;20.53;18.13;;;14.10;99.90;;;;;;5047180;28;20220;-96
2022/10/05 03:41:27;;;;;;;20.97;18.23;;;14.10;99.90;;;;;;5055604;28;20252;-97
2022/10/05 03:44:17;;;;;;;21.00;18.30;;;14.10;99.90;;;;;;5057155;28;20199;-96
2022/10/05 03:47:12;;;;;;;22.43;19.73;;;14.20;99.90;;;;;;5058017;28;20264;-96
2022/10/05 03:50:05;;;;;;;21.07;18.43;;;14.10;99.90;;;;;;5058583;28;20209;-96
2022/10/05 03:52:51;;;;;;;20.63;18.17;;;14.00;99.90;;;;;;5047902;28;20304;-96
2022/10/05 03:55:30;;;;;;;20.60;17.70;;;13.90;99.90;;;;;;5046564;28;20232;-96
2022/10/05 03:58:12;;;;;;;21.77;19.23;;;13.90;99.90;;;;;;5047255;28;20233;-96
2022/10/05 04:04:15;;;;;;;24.17;19.43;;;13.80;99.90;;;;;;5055912;28;20205;-96
2022/10/05 04:06:57;;;;;;;22.83;19.97;;;13.80;99.90;;;;;;5067094;28;20216;-96
2022/10/05 04:09:45;;;;;;;22.57;19.57;;;13.70;99.90;;;;;;5054876;28;20566;-96
2022/10/05 04:26:00;;;;;;;23.93;19.23;;;13.60;99.90;;;;;;5268561;23;20242;-96
2022/10/05 04:28:48;;;;;;;23.50;19.80;;;13.70;99.90;;;;;;4997558;28;20194;-96
2022/10/05 04:35:50;;;;;;;22.67;18.27;;;13.60;99.90;;;;;;5447374;23;20242;-96
2022/10/05 04:38:53;;;;;;;21.50;19.23;;;13.50;99.90;;;;;;5017698;28;20259;-96
2022/10/05 04:41:55;;;;;;;22.67;19.23;;;13.50;99.90;;;;;;5014614;28;20217;-96
2022/10/05 04:45:07;;;;;;;25.03;20.40;;;13.40;99.90;;;;;;5009071;28;20313;-96
2022/10/05 04:48:23;;;;;;;24.07;19.30;;;13.40;99.90;;;;;;5012821;28;20206;-96
2022/10/05 04:51:14;;;;;;;25.97;19.47;;;13.40;99.90;;;;;;5011699;28;20281;-96
2022/10/05 04:54:00;;;;;;;22.97;19.07;;;13.40;99.90;;;;;;5007189;28;20245;-96
2022/10/05 04:56:42;;;;;;;24.97;21.00;;;13.30;99.90;;;;;;5004335;28;20222;-96
2022/10/05 05:02:08;;;;;;;28.23;21.40;;;13.30;99.90;;;;;;5011669;26;20221;-96
2022/10/05 05:05:07;;;;;;;24.77;21.50;;;13.30;99.90;;;;;;5017327;28;20278;-96
2022/10/05 05:53:46;;;;;;;22.63;20.23;;;12.80;99.90;;;;;;4997181;28;21826;-96
2022/10/05 06:01:46;;;;;;;24.73;20.57;;;12.60;99.90;;;;;;5629026;23;20257;-96
2022/10/05 07:32:17;;;;;;;30.93;26.57;;;14.30;99.90;;;;;;5007910;28;20241;-96
2022/10/05 07:35:06;;;;;;;31.17;26.50;;;14.40;99.90;;;;;;5018295;28;20234;-96
2022/10/05 08:13:33;;;;;;;33.43;27.17;;;14.40;99.90;;;;;;4994142;28;20214;-96
2022/10/05 08:16:13;;;;;;;34.17;26.30;;;14.50;99.90;;;;;;5003361;28;20244;-96
2022/10/05 08:19:02;;;;;;;36.27;27.50;;;14.50;99.90;;;;;;4969362;28;20199;-96
2022/10/05 08:21:48;;;;;;;34.40;27.03;;;14.50;99.90;;;;;;4996734;28;20234;-96
2022/10/05 08:24:44;;;;;;;34.07;27.27;;;14.50;99.90;;;;;;5116855;23;20231;-96
2022/10/05 09:17:19;;;;;;;41.90;29.73;;;14.20;99.90;;;;;;5942472;23;20232;-96
2022/10/05 09:20:31;;;;;;;40.70;28.67;;;14.20;99.90;;;;;;4996857;28;20658;-96
2022/10/05 09:23:24;;;;;;;39.47;28.80;;;14.20;99.90;;;;;;4996215;28;20241;-96
2022/10/05 14:41:44;;;;;;;29.73;20.37;;;14.30;99.90;;;;;;6303027;22;20197;-96
2022/10/05 14:53:17;;;;;;;24.70;19.97;;;14.30;99.90;;;;;;6265775;22;20233;-96
2022/10/05 16:17:17;;;;;;;14.87;11.53;;;14.90;99.90;;;;;;6262418;22;20241;-96
2022/10/05 16:44:21;;;;;;;14.97;13.40;;;14.90;99.90;;;;;;6325260;22;20217;-96
2022/10/05 16:47:00;;;;;;;14.23;12.77;;;14.90;99.90;;;;;;6291760;22;20195;-96
2022/10/05 16:49:47;;;;;;;14.50;13.00;;;14.90;99.90;;;;;;6306114;22;20270;-96
2022/10/05 16:52:25;;;;;;;14.53;13.03;;;14.90;99.90;;;;;;6269434;22;20163;-96
2022/10/05 16:55:05;;;;;;;14.90;13.30;;;15.00;99.90;;;;;;6292319;22;20201;-96
2022/10/05 16:57:41;;;;;;;12.83;11.53;;;15.00;99.90;;;;;;6283185;22;20177;-96
2022/10/05 17:00:25;;;;;;;12.83;11.43;;;15.10;99.90;;;;;;6283898;22;20177;-96
2022/10/05 17:03:21;;;;;;;13.77;12.33;;;15.20;99.90;;;;;;6288823;22;20258;-96
2022/10/05 17:06:25;;;;;;;14.20;12.40;;;15.20;99.90;;;;;;6300680;22;20201;-96
2022/10/05 18:41:01;;;;;;;27.37;20.37;;;15.70;99.90;;;;;;6310839;22;20241;-96
2022/10/05 18:50:19;;;;;;;21.93;19.60;;;15.70;99.90;;;;;;6334143;22;20197;-96
2022/10/05 18:53:16;;;;;;;22.97;20.50;;;15.70;99.90;;;;;;6330871;22;20189;-96
2022/10/05 18:56:31;;;;;;;23.63;21.07;;;15.70;99.90;;;;;;6326311;22;20196;-96
2022/10/05 18:59:42;;;;;;;24.10;21.33;;;15.70;99.90;;;;;;6298183;22;20217;-95
2022/10/05 19:02:24;;;;;;;25.87;21.57;;;15.80;99.90;;;;;;6294952;22;20222;-96
2022/10/05 19:08:31;;;;;;;23.43;20.93;;;15.70;99.90;;;;;;6285416;22;20206;-96
2022/10/05 19:11:24;;;;;;;25.20;22.27;;;15.70;99.90;;;;;;6296854;22;20164;-96
2022/10/05 19:14:10;;;;;;;26.03;22.57;;;15.80;99.90;;;;;;6271082;22;20155;-96
2022/10/05 19:25:09;;;;;;;28.97;24.90;;;16.00;99.90;;;;;;6296563;22;20209;-96
2022/10/05 19:27:57;;;;;;;27.23;24.33;;;16.00;99.90;;;;;;6268008;22;20215;-96
2022/10/05 19:30:47;;;;;;;28.43;25.43;;;16.00;99.90;;;;;;6291426;22;20284;-96
2022/10/05 19:33:34;;;;;;;28.83;25.73;;;16.00;99.90;;;;;;6297023;22;20168;-96
2022/10/05 19:36:36;;;;;;;31.87;26.77;;;16.00;99.90;;;;;;6297801;22;20191;-96
2022/10/05 19:39:32;;;;;;;28.07;25.00;;;16.10;99.90;;;;;;6296289;22;20191;-96
2022/10/05 19:42:25;;;;;;;30.20;25.53;;;16.10;99.90;;;;;;6263166;22;20186;-96
2022/10/05 19:45:17;;;;;;;27.10;22.97;;;16.20;99.90;;;;;;6287645;22;20171;-96
2022/10/05 19:50:36;;;;;;;27.53;23.60;;;16.20;99.90;;;;;;6295915;22;20326;-96
2022/10/05 19:53:18;;;;;;;25.87;22.63;;;16.20;99.90;;;;;;6284760;22;20602;-96
2022/10/05 19:58:41;;;;;;;26.23;23.23;;;16.30;99.90;;;;;;6291180;22;20558;-96
2022/10/05 20:01:30;;;;;;;29.03;24.03;;;16.30;99.90;;;;;;6295367;22;20249;-96
2022/10/05 20:04:08;;;;;;;26.33;23.37;;;16.30;99.90;;;;;;6294963;22;20183;-96
2022/10/05 20:06:46;;;;;;;27.97;23.83;;;16.20;99.90;;;;;;6300970;22;20202;-96
2022/10/05 20:09:25;;;;;;;24.77;22.07;;;16.10;99.90;;;;;;6303063;22;20238;-96
2022/10/05 20:12:02;;;;;;;25.77;23.07;;;16.20;99.90;;;;;;6304586;22;20221;-96
2022/10/05 20:20:25;;;;;;;26.90;22.80;;;16.30;99.90;;;;;;6289047;22;20613;-96
2022/10/05 20:23:26;;;;;;;25.33;21.87;;;16.30;99.90;;;;;;6285733;22;20205;-96
2022/10/05 20:28:49;;;;;;;26.97;24.03;;;16.40;99.90;;;;;;6281830;22;20171;-96
2022/10/05 20:31:23;;;;;;;27.03;22.73;;;16.30;99.90;;;;;;6295862;22;20228;-96
2022/10/05 20:34:11;;;;;;;27.50;23.60;;;16.40;99.90;;;;;;6291834;22;20201;-96
2022/10/05 20:36:54;;;;;;;26.60;23.70;;;16.40;99.90;;;;;;6293331;22;20213;-96
2022/10/05 20:39:31;;;;;;;26.83;23.47;;;16.40;99.90;;;;;;6289837;22;20191;-96
2022/10/05 20:42:06;;;;;;;26.23;23.37;;;16.40;99.90;;;;;;6293751;22;20178;-96
2022/10/05 20:44:42;;;;;;;28.17;24.47;;;16.30;99.90;;;;;;6298233;22;20190;-95
2022/10/05 20:47:27;;;;;;;26.43;23.60;;;16.50;99.90;;;;;;6302315;22;20223;-97
2022/10/05 20:50:04;;;;;;;28.87;24.43;;;16.40;99.90;;;;;;6301678;22;20182;-96
2022/10/05 20:55:32;;;;;;;27.57;23.10;;;16.30;99.90;;;;;;6308037;22;20217;-96
2022/10/05 20:58:07;;;;;;;25.60;22.70;;;16.40;99.90;;;;;;6293544;22;20253;-96
2022/10/05 21:03:29;;;;;;;24.33;21.70;;;16.50;99.90;;;;;;6277449;22;20206;-92
2022/10/05 21:06:01;;;;;;;27.40;22.13;;;16.50;99.90;;;;;;6276458;22;20186;-91
2022/10/05 21:08:33;;;;;;;24.50;21.83;;;16.50;99.90;;;;;;6278679;22;20209;-94
2022/10/05 21:11:08;;;;;;;24.93;22.07;;;16.40;99.90;;;;;;6277666;22;20505;-95
2022/10/05 21:13:43;;;;;;;23.53;21.03;;;16.40;99.90;;;;;;6277881;22;20178;-95
2022/10/05 21:16:17;;;;;;;23.47;20.53;;;16.50;99.90;;;;;;6278287;22;20190;-95
2022/10/05 21:18:49;;;;;;;23.87;20.70;;;16.50;99.90;;;;;;6278109;22;20178;-93
2022/10/05 21:21:20;;;;;;;24.30;20.60;;;16.50;99.90;;;;;;6278008;22;20171;-95
2022/10/05 21:23:51;;;;;;;23.77;21.23;;;16.60;99.90;;;;;;6276677;22;20215;-94
2022/10/05 21:26:25;;;;;;;22.90;20.43;;;16.70;99.90;;;;;;6280919;22;20183;-95
2022/10/05 21:28:58;;;;;;;24.67;20.47;;;16.80;99.90;;;;;;6276293;22;20175;-94
2022/10/05 21:31:30;;;;;;;25.47;20.40;;;16.80;99.90;;;;;;6278233;22;20502;-92
2022/10/05 21:34:03;;;;;;;25.20;21.60;;;16.80;99.90;;;;;;6282194;22;20178;-94
2022/10/05 21:36:34;;;;;;;25.40;21.87;;;16.80;99.90;;;;;;6254872;22;20574;-94
2022/10/05 21:39:05;;;;;;;25.07;22.23;;;16.70;99.90;;;;;;6285983;22;20167;-93
2022/10/05 21:41:39;;;;;;;25.93;21.10;;;16.70;99.90;;;;;;6288510;22;20183;-94
2022/10/05 21:44:12;;;;;;;27.57;23.27;;;16.70;99.90;;;;;;6282434;22;20175;-94
2022/10/05 21:46:44;;;;;;;26.53;21.83;;;16.70;99.90;;;;;;6278829;22;20610;-95
2022/10/05 21:49:16;;;;;;;27.63;24.17;;;16.80;99.90;;;;;;6280959;22;20167;-94
2022/10/05 21:51:49;;;;;;;31.53;23.83;;;16.80;99.90;;;;;;6279273;22;20209;-94
2022/10/05 21:54:23;;;;;;;36.07;25.00;;;16.80;99.90;;;;;;6277972;22;20179;-95
2022/10/05 21:56:58;;;;;;;29.63;25.47;;;16.80;99.90;;;;;;6281150;22;20169;-95
2022/10/05 21:59:35;;;;;;;30.33;24.67;;;16.80;99.90;;;;;;6278672;22;20175;-95
2022/10/05 22:02:06;;;;;;;26.47;23.47;;;16.70;99.90;;;;;;6279506;22;20257;-95
2022/10/05 22:04:37;;;;;;;30.57;25.97;;;16.70;99.90;;;;;;6278684;22;20613;-95
2022/10/05 22:07:18;;;;;;;28.87;24.63;;;16.80;99.90;;;;;;6277048;22;20191;-96
2022/10/05 22:09:50;;;;;;;34.30;26.60;;;16.80;99.90;;;;;;6277788;22;20171;-95
2022/10/05 22:12:25;;;;;;;34.23;27.43;;;16.90;99.90;;;;;;6277439;22;20175;-95
2022/10/05 22:14:56;;;;;;;37.27;27.40;;;16.90;99.90;;;;;;6278169;22;20182;-96
2022/10/05 22:17:30;;;;;;;34.13;26.43;;;16.80;99.90;;;;;;6277503;22;20175;-95
2022/10/05 22:20:02;;;;;;;33.93;27.07;;;16.90;99.90;;;;;;6278178;22;20178;-95
2022/10/05 22:22:33;;;;;;;31.03;26.80;;;16.90;99.90;;;;;;6280329;22;20177;-95
2022/10/05 22:25:06;;;;;;;32.23;28.00;;;16.80;99.90;;;;;;6278516;22;20213;-94
2022/10/05 22:27:41;;;;;;;32.63;27.20;;;16.90;99.90;;;;;;6277933;22;20209;-95
2022/10/05 22:30:14;;;;;;;32.10;26.60;;;17.00;99.90;;;;;;6278385;22;20614;-94
2022/10/05 22:32:45;;;;;;;31.73;26.90;;;17.10;99.90;;;;;;6276681;22;20178;-94
2022/10/05 22:35:17;;;;;;;34.50;26.83;;;17.30;99.90;;;;;;6278029;22;20254;-94
2022/10/05 22:37:48;;;;;;;30.53;27.20;;;17.30;99.90;;;;;;6278726;22;20163;-95
2022/10/05 22:40:20;;;;;;;31.73;27.07;;;17.50;99.90;;;;;;6279431;22;20531;-93
2022/10/05 22:42:55;;;;;;;30.07;26.70;;;17.70;99.90;;;;;;6277498;22;20198;-95
2022/10/05 22:45:27;;;;;;;34.63;26.53;;;17.90;99.90;;;;;;6278542;22;20177;-94
2022/10/05 22:48:02;;;;;;;31.63;25.40;;;18.00;99.90;;;;;;6280087;22;20195;-93
2022/10/05 22:50:34;;;;;;;34.03;25.70;;;18.30;99.90;;;;;;6278607;22;20175;-95
2022/10/05 22:53:05;;;;;;;31.50;25.17;;;18.60;99.90;;;;;;6278303;22;20168;-94
2022/10/05 22:55:36;;;;;;;30.67;25.03;;;18.80;99.90;;;;;;6279029;22;20189;-94
2022/10/05 22:58:10;;;;;;;27.97;25.00;;;18.90;99.90;;;;;;6280630;22;20193;-94
2022/10/05 23:00:41;;;;;;;28.73;25.63;;;18.60;99.90;;;;;;6279283;22;20182;-94
2022/10/05 23:03:30;;;;;;;31.70;25.77;;;18.70;99.90;;;;;;6281040;22;20190;-94
2022/10/05 23:06:03;;;;;;;28.10;23.80;;;18.60;99.90;;;;;;6283371;22;20593;-95
2022/10/05 23:08:35;;;;;;;27.33;24.43;;;18.50;99.90;;;;;;6281240;22;20533;-94
2022/10/05 23:11:10;;;;;;;27.00;23.23;;;18.40;99.90;;;;;;6282643;22;20179;-96
2022/10/05 23:13:45;;;;;;;26.87;22.23;;;18.40;99.90;;;;;;6279804;22;20174;-96
2022/10/05 23:16:18;;;;;;;28.50;22.13;;;18.30;99.90;;;;;;6287112;22;20167;-95
2022/10/05 23:18:50;;;;;;;26.27;22.47;;;18.20;99.90;;;;;;6281971;22;20323;-95
2022/10/05 23:21:23;;;;;;;22.37;19.97;;;17.90;99.90;;;;;;6281871;22;20171;-95
2022/10/05 23:23:54;;;;;;;22.60;18.80;;;17.90;99.90;;;;;;6280182;22;20171;-96
2022/10/05 23:26:26;;;;;;;23.77;18.57;;;17.90;99.90;;;;;;6281794;22;20194;-95
2022/10/05 23:29:00;;;;;;;21.93;19.07;;;18.00;99.90;;;;;;6279839;22;20202;-96
2022/10/05 23:31:35;;;;;;;24.00;18.23;;;18.10;99.90;;;;;;6280639;22;20238;-95
2022/10/05 23:34:06;;;;;;;26.30;18.90;;;18.10;99.90;;;;;;6279632;22;20545;-96
2022/10/05 23:36:37;;;;;;;24.33;19.93;;;18.00;99.90;;;;;;6281161;22;20197;-95
2022/10/05 23:39:10;;;;;;;23.13;19.33;;;18.00;99.90;;;;;;6280239;22;20171;-95
2022/10/05 23:41:42;;;;;;;22.53;19.80;;;17.80;99.90;;;;;;6279559;22;20167;-95
2022/10/05 23:44:16;;;;;;;27.20;21.50;;;17.90;99.90;;;;;;6255589;22;20182;-94
2022/10/05 23:46:47;;;;;;;26.53;23.67;;;17.70;99.90;;;;;;6280728;22;20174;-95
2022/10/05 23:49:19;;;;;;;27.97;23.43;;;17.60;99.90;;;;;;6283168;22;20214;-95
2022/10/05 23:51:50;;;;;;;27.37;22.43;;;17.60;99.90;;;;;;6286239;22;20690;-94
2022/10/05 23:54:22;;;;;;;29.33;21.37;;;17.60;99.90;;;;;;6284370;22;20254;-95
2022/10/05 23:56:53;;;;;;;26.80;22.60;;;17.80;99.90;;;;;;6296074;22;20163;-95
2022/10/05 23:59:27;;;;;;;27.40;21.93;;;17.70;99.90;;;;;;6303013;22;20169;-95
